createdAt,value
2023-04-12T00:00:48.421Z,3.99
2023-04-12T00:03:21.363Z,3.87
2023-04-12T00:05:48.399Z,3.89
2023-04-12T00:08:15.872Z,3.85
2023-04-12T00:10:42.621Z,3.84
2023-04-12T00:13:09.083Z,3.85
2023-04-12T00:15:35.701Z,3.92
2023-04-12T00:18:02.236Z,4.01
2023-04-12T00:20:28.854Z,3.91
2023-04-12T00:22:57.506Z,3.88
2023-04-12T00:25:24.320Z,3.86
2023-04-12T00:27:50.930Z,3.85
2023-04-12T00:30:17.902Z,3.87
2023-04-12T00:32:44.469Z,3.96
2023-04-12T00:35:11.152Z,4.03
2023-04-12T00:37:38.413Z,3.98
2023-04-12T00:40:08.334Z,3.94
2023-04-12T00:42:36.896Z,3.83
2023-04-12T00:45:04.266Z,3.89
2023-04-12T00:47:30.836Z,3.91
2023-04-12T00:49:57.322Z,3.94
2023-04-12T00:52:23.848Z,3.94
2023-04-12T00:54:51.899Z,3.99
2023-04-12T00:57:18.515Z,3.82
2023-04-12T00:59:45.273Z,3.90
2023-04-12T01:02:11.854Z,3.88
2023-04-12T01:04:39.649Z,3.88
2023-04-12T01:07:21.736Z,3.97
2023-04-12T01:10:08.651Z,4.00
2023-04-12T01:13:00.739Z,4.09
2023-04-12T01:15:28.842Z,4.18
2023-04-12T01:18:07.191Z,4.18
2023-04-12T01:20:44.523Z,4.08
2023-04-12T01:23:29.177Z,4.03
2023-04-12T01:26:17.712Z,4.02
2023-04-12T01:28:44.767Z,3.96
2023-04-12T01:31:12.985Z,3.96
2023-04-12T01:33:41.017Z,3.78
2023-04-12T01:36:19.114Z,3.94
2023-04-12T01:38:46.756Z,3.83
2023-04-12T01:41:13.739Z,3.99
2023-04-12T01:43:42.753Z,3.96
2023-04-12T01:46:13.597Z,4.08
2023-04-12T01:48:41.519Z,4.09
2023-04-12T01:51:14.225Z,4.14
2023-04-12T01:53:48.143Z,4.17
2023-04-12T01:56:17.718Z,4.20
2023-04-12T01:58:46.626Z,4.13
2023-04-12T02:01:15.403Z,4.15
2023-04-12T02:03:42.708Z,4.39
2023-04-12T02:06:09.802Z,4.30
2023-04-12T02:08:37.038Z,4.42
2023-04-12T02:11:14.637Z,4.41
2023-04-12T02:13:41.399Z,4.27
2023-04-12T02:16:10.622Z,4.37
2023-04-12T02:18:37.390Z,4.33
2023-04-12T02:21:03.974Z,4.32
2023-04-12T02:23:30.383Z,4.25
2023-04-12T02:25:56.849Z,4.32
2023-04-12T02:28:23.348Z,4.40
2023-04-12T02:30:53.559Z,4.41
2023-04-12T02:33:25.452Z,4.43
2023-04-12T02:35:52.364Z,4.41
2023-04-12T02:38:18.892Z,4.42
2023-04-12T02:40:45.415Z,4.50
2023-04-12T02:43:11.909Z,4.45
2023-04-12T02:45:38.385Z,4.49
2023-04-12T02:48:05.460Z,4.44
2023-04-12T02:50:33.164Z,4.41
2023-04-12T02:52:59.657Z,4.27
2023-04-12T02:55:27.080Z,4.39
2023-04-12T02:57:53.653Z,4.38
2023-04-12T03:00:21.566Z,4.37
2023-04-12T03:02:49.961Z,4.20
2023-04-12T03:05:17.688Z,4.36
2023-04-12T03:07:44.695Z,4.36
2023-04-12T03:10:13.973Z,4.35
2023-04-12T03:12:40.705Z,4.37
2023-04-12T03:15:08.011Z,4.40
2023-04-12T03:17:34.625Z,4.41
2023-04-12T03:20:10.414Z,4.45
2023-04-12T03:22:37.711Z,4.49
2023-04-12T03:25:05.168Z,4.57
2023-04-12T03:27:31.855Z,4.56
2023-04-12T03:29:58.362Z,4.68
2023-04-12T03:32:25.161Z,4.73
2023-04-12T03:34:51.678Z,4.70
2023-04-12T03:37:18.396Z,4.92
2023-04-12T03:39:47.971Z,4.99
2023-04-12T03:42:29.324Z,5.07
2023-04-12T03:44:59.239Z,5.08
2023-04-12T03:47:25.778Z,5.13
2023-04-12T03:50:10.159Z,5.03
2023-04-12T03:52:38.116Z,5.18
2023-04-12T03:55:07.032Z,5.09
2023-04-12T03:57:33.517Z,4.91
2023-04-12T04:00:00.216Z,5.34
2023-04-12T04:02:27.508Z,5.24
2023-04-12T04:04:54.288Z,5.40
2023-04-12T04:07:21.766Z,5.27
2023-04-12T04:09:49.824Z,5.44
2023-04-12T04:12:16.259Z,5.44
2023-04-12T04:14:42.796Z,5.42
2023-04-12T04:17:09.294Z,5.45
2023-04-12T04:19:35.709Z,5.44
2023-04-12T04:22:02.988Z,5.45
2023-04-12T04:24:29.870Z,5.45
2023-04-12T04:26:56.385Z,5.45
2023-04-12T04:29:23.641Z,5.47
2023-04-12T04:31:50.816Z,5.50
2023-04-12T04:34:19.026Z,5.52
2023-04-12T04:36:46.842Z,5.57
2023-04-12T04:39:13.472Z,5.51
2023-04-12T04:41:41.219Z,5.65
2023-04-12T04:44:11.239Z,5.62
2023-04-12T04:46:38.196Z,5.71
2023-04-12T04:49:05.740Z,5.74
2023-04-12T04:51:32.633Z,5.78
2023-04-12T04:53:59.384Z,5.79
2023-04-12T04:56:26.223Z,5.82
2023-04-12T04:58:54.089Z,5.87
2023-04-12T05:01:25.975Z,5.88
2023-04-12T05:03:52.918Z,5.89
2023-04-12T05:06:19.524Z,5.93
2023-04-12T05:08:46.082Z,5.99
2023-04-12T05:11:12.709Z,6.08
2023-04-12T05:13:39.491Z,6.27
2023-04-12T05:16:07.977Z,6.47
2023-04-12T05:18:34.530Z,6.46
2023-04-12T05:21:05.395Z,6.69
2023-04-12T05:23:42.308Z,6.71
2023-04-12T05:26:08.802Z,6.73
2023-04-12T05:28:35.273Z,6.88
2023-04-12T05:31:01.999Z,7.15
2023-04-12T05:33:28.511Z,7.21
2023-04-12T05:35:55.031Z,7.29
2023-04-12T05:38:21.584Z,7.37
2023-04-12T05:40:49.941Z,7.42
2023-04-12T05:43:17.765Z,7.46
2023-04-12T05:45:44.297Z,7.53
2023-04-12T05:48:11.106Z,7.57
2023-04-12T05:50:37.757Z,7.63
2023-04-12T05:53:04.344Z,7.60
2023-04-12T05:55:30.889Z,7.75
2023-04-12T05:57:58.621Z,7.82
2023-04-12T06:00:25.197Z,7.87
2023-04-12T06:02:52.320Z,7.93
2023-04-12T06:05:19.429Z,8.00
2023-04-12T06:07:47.047Z,8.09
2023-04-12T06:10:15.139Z,8.19
2023-04-12T06:12:41.980Z,8.22
2023-04-12T06:15:08.883Z,8.33
2023-04-12T06:17:37.050Z,8.31
2023-04-12T06:20:09.302Z,8.46
2023-04-12T06:22:36.749Z,8.49
2023-04-12T06:25:03.852Z,8.59
2023-04-12T06:27:30.832Z,8.67
2023-04-12T06:29:57.467Z,8.74
2023-04-12T06:32:24.008Z,8.80
2023-04-12T06:34:50.637Z,8.86
2023-04-12T06:37:17.133Z,8.91
2023-04-12T06:39:43.569Z,8.96
2023-04-12T06:42:10.483Z,9.02
2023-04-12T06:44:38.098Z,9.04
2023-04-12T06:47:04.717Z,9.07
2023-04-12T06:49:31.395Z,9.15
2023-04-12T06:51:57.904Z,9.11
2023-04-12T06:54:24.459Z,9.28
2023-04-12T06:56:51.063Z,9.33
2023-04-12T06:59:17.738Z,9.42
2023-04-12T07:01:44.503Z,9.43
2023-04-12T07:04:11.964Z,9.43
2023-04-12T07:06:38.472Z,9.48
2023-04-12T07:09:05.011Z,9.47
2023-04-12T07:11:31.851Z,9.53
2023-04-12T07:14:01.165Z,9.51
2023-04-12T07:16:31.531Z,9.65
2023-04-12T07:18:59.462Z,9.67
2023-04-12T07:21:27.364Z,9.72
2023-04-12T07:23:54.013Z,9.76
2023-04-12T07:26:21.788Z,9.83
2023-04-12T07:28:48.554Z,9.86
2023-04-12T07:31:15.488Z,9.89
2023-04-12T07:33:43.283Z,9.83
2023-04-12T07:36:11.128Z,9.94
2023-04-12T07:38:37.685Z,10.00
2023-04-12T07:41:04.501Z,9.95
2023-04-12T07:43:31.104Z,10.15
2023-04-12T07:45:57.713Z,10.05
2023-04-12T07:48:24.413Z,10.29
2023-04-12T07:50:51.424Z,10.35
2023-04-12T07:53:28.576Z,10.32
2023-04-12T07:55:55.824Z,10.40
2023-04-12T07:58:23.623Z,10.25
2023-04-12T08:00:51.013Z,10.46
2023-04-12T08:03:18.394Z,10.40
2023-04-12T08:05:45.516Z,10.57
2023-04-12T08:08:12.221Z,10.60
2023-04-12T08:10:39.706Z,10.57
2023-04-12T08:13:06.637Z,10.51
2023-04-12T08:15:33.515Z,10.48
2023-04-12T08:18:00.920Z,10.42
2023-04-12T08:20:27.663Z,10.36
2023-04-12T08:22:54.621Z,10.16
2023-04-12T08:25:21.778Z,10.32
2023-04-12T08:27:49.701Z,10.44
2023-04-12T08:30:17.254Z,10.53
2023-04-12T08:32:44.013Z,10.43
2023-04-12T08:35:11.054Z,10.65
2023-04-12T08:37:37.611Z,10.67
2023-04-12T08:40:06.917Z,10.76
2023-04-12T08:42:37.612Z,10.79
2023-04-12T08:45:13.860Z,10.84
2023-04-12T08:47:44.458Z,11.01
2023-04-12T08:50:14.094Z,11.02
2023-04-12T08:52:42.012Z,11.12
2023-04-12T08:55:10.378Z,11.19
2023-04-12T08:57:41.068Z,11.10
2023-04-12T09:00:09.204Z,11.02
2023-04-12T09:02:37.310Z,11.13
2023-04-12T09:05:04.538Z,10.98
2023-04-12T09:07:31.217Z,11.07
2023-04-12T09:09:58.575Z,10.83
2023-04-12T09:12:25.560Z,10.62
2023-04-12T09:15:13.424Z,10.46
2023-04-12T09:17:41.477Z,10.25
2023-04-12T09:20:17.223Z,10.11
2023-04-12T09:22:45.245Z,10.01
2023-04-12T09:25:12.699Z,9.93
2023-04-12T09:27:46.961Z,9.86
2023-04-12T09:30:14.249Z,9.80
2023-04-12T09:32:40.917Z,9.75
2023-04-12T09:35:08.181Z,9.54
2023-04-12T09:37:34.737Z,9.64
2023-04-12T09:40:07.171Z,9.55
2023-04-12T09:42:34.796Z,9.47
2023-04-12T09:45:19.379Z,9.35
2023-04-12T09:47:45.880Z,9.29
2023-04-12T09:50:20.638Z,9.29
2023-04-12T09:52:47.226Z,9.29
2023-04-12T09:55:14.101Z,9.31
2023-04-12T09:57:44.730Z,9.35
2023-04-12T10:00:16.961Z,9.39
2023-04-12T10:02:46.933Z,9.38
2023-04-12T10:05:17.047Z,9.36
2023-04-12T10:07:44.442Z,9.38
2023-04-12T10:10:12.606Z,9.34
2023-04-12T10:12:43.446Z,9.28
2023-04-12T10:15:17.449Z,9.24
2023-04-12T10:17:49.647Z,9.19
2023-04-12T10:20:17.228Z,9.17
2023-04-12T10:22:48.697Z,8.99
2023-04-12T10:25:17.402Z,8.97
2023-04-12T10:27:45.056Z,9.10
2023-04-12T10:30:29.116Z,9.11
2023-04-12T10:33:05.520Z,9.12
2023-04-12T10:35:52.528Z,9.14
2023-04-12T10:38:19.287Z,9.15
2023-04-12T10:41:10.716Z,9.19
2023-04-12T10:43:37.787Z,9.18
2023-04-12T10:46:06.518Z,9.29
2023-04-12T10:48:40.831Z,9.36
2023-04-12T10:51:26.633Z,9.37
2023-04-12T10:54:08.809Z,9.28
2023-04-12T10:56:41.957Z,9.38
2023-04-12T10:59:09.426Z,9.37
2023-04-12T11:01:38.997Z,9.36
2023-04-12T11:04:16.671Z,9.34
2023-04-12T11:07:11.695Z,9.36
2023-04-12T11:09:44.847Z,9.38
2023-04-12T11:12:13.445Z,9.38
2023-04-12T11:14:43.229Z,9.42
2023-04-12T11:17:09.840Z,9.45
2023-04-12T11:19:41.744Z,9.46
2023-04-12T11:22:14.906Z,9.48
2023-04-12T11:24:49.555Z,9.54
2023-04-12T11:27:16.862Z,9.59
2023-04-12T11:29:44.612Z,9.64
2023-04-12T11:32:13.955Z,9.64
2023-04-12T11:34:42.106Z,9.74
2023-04-12T11:37:09.441Z,9.80
2023-04-12T11:39:37.464Z,9.86
2023-04-12T11:42:04.701Z,9.87
2023-04-12T11:44:47.937Z,9.88
2023-04-12T11:47:24.735Z,9.87
2023-04-12T11:49:53.046Z,9.86
2023-04-12T11:52:20.503Z,9.92
2023-04-12T11:54:49.484Z,9.98
2023-04-12T11:57:19.397Z,10.08
2023-04-12T11:59:47.379Z,10.19
2023-04-12T12:02:22.841Z,10.22
2023-04-12T12:04:50.840Z,10.15
2023-04-12T12:07:18.405Z,10.23
2023-04-12T12:09:46.570Z,10.22
2023-04-12T12:12:14.291Z,10.17
2023-04-12T12:14:41.247Z,10.26
2023-04-12T12:17:12.728Z,10.22
2023-04-12T12:19:41.195Z,10.23
2023-04-12T12:22:14.098Z,10.23
2023-04-12T12:24:51.110Z,10.24
2023-04-12T12:27:30.287Z,10.23
2023-04-12T12:30:01.173Z,10.21
2023-04-12T12:32:34.219Z,10.07
2023-04-12T12:35:01.118Z,10.15
2023-04-12T12:37:28.613Z,10.13
2023-04-12T12:40:07.427Z,10.18
2023-04-12T12:42:34.530Z,10.16
2023-04-12T12:45:01.096Z,10.14
2023-04-12T12:47:27.577Z,10.17
2023-04-12T12:49:54.034Z,10.20
2023-04-12T12:52:20.645Z,10.24
2023-04-12T12:54:47.146Z,10.30
2023-04-12T12:57:13.700Z,10.35
2023-04-12T12:59:40.192Z,10.37
2023-04-12T13:02:07.670Z,10.37
2023-04-12T13:04:34.602Z,10.43
2023-04-12T13:07:01.513Z,10.44
2023-04-12T13:09:28.064Z,10.49
2023-04-12T13:11:54.635Z,10.56
2023-04-12T13:14:21.119Z,10.74
2023-04-12T13:16:49.142Z,10.95
2023-04-12T13:19:16.323Z,11.20
2023-04-12T13:21:42.787Z,11.51
2023-04-12T13:24:09.526Z,11.67
2023-04-12T13:26:36.159Z,11.85
2023-04-12T13:29:03.239Z,12.33
2023-04-12T13:31:30.099Z,12.78
2023-04-12T13:33:56.689Z,12.72
2023-04-12T13:36:23.142Z,12.46
2023-04-12T13:38:49.673Z,12.20
2023-04-12T13:41:16.170Z,12.44
2023-04-12T13:43:42.676Z,12.62
2023-04-12T13:46:09.280Z,12.73
2023-04-12T13:48:35.890Z,12.68
2023-04-12T13:51:03.651Z,12.45
2023-04-12T13:53:31.007Z,12.25
2023-04-12T13:55:57.603Z,12.35
2023-04-12T13:58:25.849Z,12.43
2023-04-12T14:00:54.207Z,12.41
2023-04-12T14:03:21.036Z,12.37
2023-04-12T14:05:47.593Z,12.27
2023-04-12T14:08:14.140Z,11.94
2023-04-12T14:10:40.819Z,12.23
2023-04-12T14:13:07.324Z,12.23
2023-04-12T14:15:33.880Z,12.25
2023-04-12T14:18:00.474Z,12.20
2023-04-12T14:20:27.072Z,12.26
2023-04-12T14:22:53.685Z,12.47
2023-04-12T14:25:21.304Z,12.55
2023-04-12T14:27:47.764Z,12.73
2023-04-12T14:30:15.894Z,12.81
2023-04-12T14:32:47.179Z,12.84
2023-04-12T14:35:14.244Z,12.78
2023-04-12T14:37:40.760Z,12.50
2023-04-12T14:40:08.407Z,12.59
2023-04-12T14:42:35.606Z,12.59
2023-04-12T14:45:02.054Z,12.67
2023-04-12T14:47:28.745Z,12.72
2023-04-12T14:49:55.329Z,12.78
2023-04-12T14:52:21.887Z,12.82
2023-04-12T14:54:48.336Z,12.91
2023-04-12T14:57:15.494Z,12.98
2023-04-12T14:59:42.091Z,12.95
2023-04-12T15:02:08.881Z,12.86
2023-04-12T15:04:35.501Z,12.76
2023-04-12T15:07:02.096Z,12.77
2023-04-12T15:09:28.784Z,12.75
2023-04-12T15:12:01.235Z,12.73
2023-04-12T15:14:28.144Z,12.77
2023-04-12T15:16:55.540Z,12.79
2023-04-12T15:19:25.049Z,12.85
2023-04-12T15:21:52.362Z,13.04
2023-04-12T15:24:19.507Z,13.02
2023-04-12T15:26:48.409Z,13.16
2023-04-12T15:29:16.489Z,12.99
2023-04-12T15:31:43.369Z,12.98
2023-04-12T15:34:10.812Z,12.91
2023-04-12T15:36:37.574Z,12.82
2023-04-12T15:39:07.067Z,12.84
2023-04-12T15:41:37.277Z,12.99
2023-04-12T15:44:05.544Z,12.92
2023-04-12T15:46:32.121Z,13.01
2023-04-12T15:48:58.838Z,13.02
2023-04-12T15:51:27.100Z,12.98
2023-04-12T15:53:54.118Z,12.98
2023-04-12T15:56:24.175Z,13.13
2023-04-12T15:58:51.741Z,13.21
2023-04-12T16:01:19.315Z,13.25
2023-04-12T16:06:19.572Z,13.34
2023-04-12T16:08:54.456Z,13.23
2023-04-12T16:11:23.674Z,13.07
2023-04-12T16:13:50.885Z,13.07
2023-04-12T16:16:20.691Z,12.98
2023-04-12T16:18:47.436Z,12.99
2023-04-12T16:21:16.992Z,12.95
2023-04-12T16:23:44.149Z,12.73
2023-04-12T16:26:12.258Z,12.78
2023-04-12T16:28:39.134Z,12.97
2023-04-12T16:33:32.631Z,12.85
2023-04-12T16:36:00.732Z,12.65
2023-04-12T16:38:27.282Z,12.75
2023-04-12T16:40:53.926Z,12.67
2023-04-12T16:43:20.444Z,12.59
2023-04-12T16:45:49.308Z,12.39
2023-04-12T16:48:16.057Z,12.44
2023-04-12T16:50:47.262Z,12.21
2023-04-12T16:53:14.907Z,12.36
2023-04-12T16:55:47.248Z,12.38
2023-04-12T16:58:14.433Z,12.37
2023-04-12T17:00:43.013Z,12.29
2023-04-12T17:03:11.519Z,12.34
2023-04-12T17:05:39.964Z,12.17
2023-04-12T17:08:09.397Z,12.32
2023-04-12T17:10:36.906Z,12.22
2023-04-12T17:13:04.352Z,12.19
2023-04-12T17:15:31.403Z,12.17
2023-04-12T17:18:11.364Z,12.23
2023-04-12T17:20:38.932Z,12.28
2023-04-12T17:23:07.312Z,12.21
2023-04-12T17:25:34.424Z,12.25
2023-04-12T17:28:02.180Z,12.17
2023-04-12T17:30:28.920Z,12.18
2023-04-12T17:32:56.311Z,12.19
2023-04-12T17:35:22.950Z,12.09
2023-04-12T17:37:49.392Z,12.13
2023-04-12T17:40:16.141Z,12.06
2023-04-12T17:42:43.665Z,12.09
2023-04-12T17:45:12.519Z,12.06
2023-04-12T17:47:40.059Z,12.07
2023-04-12T17:50:08.367Z,11.86
2023-04-12T17:52:35.594Z,11.83
2023-04-12T17:55:04.010Z,11.71
2023-04-12T17:57:31.214Z,11.61
2023-04-12T17:59:58.384Z,11.75
2023-04-12T18:02:25.244Z,11.52
2023-04-12T18:04:52.151Z,11.78
2023-04-12T18:07:18.636Z,11.74
2023-04-12T18:09:45.369Z,11.75
2023-04-12T18:12:13.032Z,11.69
2023-04-12T18:14:42.405Z,11.67
2023-04-12T18:17:09.062Z,11.61
2023-04-12T18:19:36.372Z,11.67
2023-04-12T18:22:03.218Z,11.61
2023-04-12T18:24:29.759Z,11.64
2023-04-12T18:26:59.096Z,11.60
2023-04-12T18:29:26.007Z,11.46
2023-04-12T18:31:52.639Z,11.22
2023-04-12T18:34:19.343Z,11.00
2023-04-12T18:36:45.904Z,10.75
2023-04-12T18:39:12.359Z,10.55
2023-04-12T18:41:40.898Z,10.36
2023-04-12T18:44:13.102Z,10.16
2023-04-12T18:46:40.496Z,10.24
2023-04-12T18:49:08.952Z,10.18
2023-04-12T18:51:36.279Z,10.13
2023-04-12T18:54:02.993Z,10.11
2023-04-12T18:56:29.519Z,10.12
2023-04-12T18:58:56.946Z,10.10
2023-04-12T19:01:24.985Z,10.11
2023-04-12T19:03:51.872Z,10.14
2023-04-12T19:06:19.709Z,10.18
2023-04-12T19:08:46.272Z,10.12
2023-04-12T19:11:12.776Z,10.20
2023-04-12T19:13:39.444Z,10.23
2023-04-12T19:16:09.214Z,10.27
2023-04-12T19:18:36.241Z,10.26
2023-04-12T19:21:03.417Z,10.20
2023-04-12T19:23:30.900Z,10.05
2023-04-12T19:26:00.627Z,10.16
2023-04-12T19:28:27.877Z,10.10
2023-04-12T19:30:56.645Z,10.02
2023-04-12T19:33:24.644Z,9.95
2023-04-12T19:35:52.104Z,9.91
2023-04-12T19:38:21.063Z,9.87
2023-04-12T19:40:47.862Z,9.65
2023-04-12T19:43:14.973Z,9.72
2023-04-12T19:45:42.263Z,9.58
2023-04-12T19:48:09.055Z,9.63
2023-04-12T19:50:36.223Z,9.58
2023-04-12T19:53:03.333Z,9.50
2023-04-12T19:55:30.575Z,9.53
2023-04-12T19:57:58.430Z,9.44
2023-04-12T20:00:25.342Z,9.46
2023-04-12T20:02:53.237Z,9.39
2023-04-12T20:05:20.523Z,9.41
2023-04-12T20:07:47.124Z,9.36
2023-04-12T20:10:15.341Z,9.28
2023-04-12T20:12:41.921Z,9.26
2023-04-12T20:15:11.545Z,9.20
2023-04-12T20:17:42.118Z,9.15
2023-04-12T20:20:14.183Z,9.03
2023-04-12T20:22:42.004Z,9.04
2023-04-12T20:25:10.567Z,8.99
2023-04-12T20:27:37.872Z,8.95
2023-04-12T20:30:05.538Z,8.80
2023-04-12T20:32:32.791Z,8.88
2023-04-12T20:34:59.358Z,8.88
2023-04-12T20:37:25.966Z,8.84
2023-04-12T20:39:52.475Z,8.77
2023-04-12T20:42:21.338Z,8.86
2023-04-12T20:44:48.376Z,8.72
2023-04-12T20:47:15.212Z,8.72
2023-04-12T20:49:42.386Z,8.95
2023-04-12T20:52:09.545Z,8.98
2023-04-12T20:54:36.494Z,8.94
2023-04-12T20:57:05.708Z,8.82
2023-04-12T20:59:33.343Z,8.72
2023-04-12T21:02:00.373Z,8.64
2023-04-12T21:04:30.427Z,8.55
2023-04-12T21:06:57.741Z,8.41
2023-04-12T21:09:24.693Z,8.25
2023-04-12T21:11:52.473Z,8.04
2023-04-12T21:14:19.974Z,7.90
2023-04-12T21:16:48.693Z,7.76
2023-04-12T21:19:18.644Z,7.70
2023-04-12T21:21:45.941Z,7.61
2023-04-12T21:24:13.143Z,7.55
2023-04-12T21:26:40.183Z,7.43
2023-04-12T21:29:06.750Z,7.44
2023-04-12T21:31:33.351Z,7.32
2023-04-12T21:33:59.956Z,7.36
2023-04-12T21:36:30.287Z,7.36
2023-04-12T21:38:59.800Z,7.35
2023-04-12T21:41:26.664Z,7.32
2023-04-12T21:43:53.125Z,7.29
2023-04-12T21:46:19.782Z,7.27
2023-04-12T21:48:46.413Z,7.14
2023-04-12T21:51:12.892Z,7.24
2023-04-12T21:53:39.407Z,7.20
2023-04-12T21:56:06.500Z,7.12
2023-04-12T21:58:33.351Z,7.13
2023-04-12T22:01:00.031Z,6.98
2023-04-12T22:03:27.141Z,6.93
2023-04-12T22:06:03.691Z,7.13
2023-04-12T22:08:32.769Z,7.10
2023-04-12T22:11:00.348Z,7.04
2023-04-12T22:13:27.196Z,6.99
2023-04-12T22:15:53.754Z,6.93
2023-04-12T22:18:20.516Z,6.85
2023-04-12T22:20:47.982Z,6.76
2023-04-12T22:23:18.128Z,6.85
2023-04-12T22:25:45.575Z,6.67
2023-04-12T22:28:12.330Z,6.80
2023-04-12T22:30:39.007Z,6.77
2023-04-12T22:33:05.642Z,6.61
2023-04-12T22:35:35.090Z,6.72
2023-04-12T22:38:01.633Z,6.69
2023-04-12T22:40:28.188Z,6.70
2023-04-12T22:42:56.034Z,6.69
2023-04-12T22:45:22.761Z,6.66
2023-04-12T22:47:49.309Z,6.61
2023-04-12T22:50:15.866Z,6.58
2023-04-12T22:52:42.593Z,6.49
2023-04-12T22:55:11.626Z,6.48
2023-04-12T22:57:38.714Z,6.43
2023-04-12T23:00:06.203Z,6.36
2023-04-12T23:02:33.729Z,6.19
2023-04-12T23:05:02.508Z,6.25
2023-04-12T23:07:30.298Z,6.04
2023-04-12T23:09:57.742Z,6.15
2023-04-12T23:12:25.604Z,6.09
2023-04-12T23:14:55.467Z,6.04
2023-04-12T23:17:22.599Z,5.87
2023-04-12T23:19:50.407Z,5.84
2023-04-12T23:22:44.326Z,5.94
2023-04-12T23:25:20.641Z,5.87
2023-04-12T23:27:47.766Z,5.91
2023-04-12T23:30:15.501Z,5.48
2023-04-12T23:32:42.014Z,5.80
2023-04-12T23:35:09.176Z,5.84
2023-04-12T23:37:36.236Z,5.89
2023-04-12T23:40:05.867Z,5.84
2023-04-12T23:42:33.113Z,5.90
2023-04-12T23:44:59.949Z,5.86
2023-04-12T23:47:27.081Z,5.78
2023-04-12T23:49:53.624Z,5.88
2023-04-12T23:52:20.073Z,5.90
2023-04-12T23:54:46.501Z,5.92
2023-04-12T23:57:12.958Z,5.96
2023-04-12T23:59:39.476Z,6.01
